Time;durP1;ratioP1;P1;durP2;ratioP2;P2;SDS_P1;SDS_P2;PMS_P1;PMS_P2;Temp;Humidity;BMP_temperature;BMP_pressure;BME280_temperature;BME280_humidity;BME280_pressure;Samples;Min_cycle;Max_cycle;Signal;HPM_P1;HPM_P2
2022/04/22 00:00:04;;;;;;;2.70;0.30;;;12.10;99.90;;;;;;5036519;28;20475;-74
2022/04/22 00:02:30;;;;;;;2.47;0.65;;;12.00;99.90;;;;;;5036071;28;20025;-75
2022/04/22 00:04:56;;;;;;;2.10;0.75;;;12.00;99.90;;;;;;5036371;28;20425;-74
2022/04/22 00:07:21;;;;;;;4.68;1.00;;;11.90;99.90;;;;;;5036114;28;20060;-75
2022/04/22 00:09:47;;;;;;;5.53;0.80;;;11.90;99.90;;;;;;5036261;28;20071;-74
2022/04/22 00:12:12;;;;;;;3.08;0.60;;;11.90;99.90;;;;;;5035954;28;20060;-75
2022/04/22 00:14:38;;;;;;;3.67;0.88;;;11.90;99.90;;;;;;5018513;28;20018;-75
2022/04/22 00:17:04;;;;;;;3.30;1.10;;;11.90;99.90;;;;;;5035929;28;20025;-75
2022/04/22 00:19:29;;;;;;;2.85;0.65;;;11.90;99.90;;;;;;5035897;28;20018;-75
2022/04/22 00:21:55;;;;;;;2.63;1.35;;;11.80;99.90;;;;;;5018082;28;20015;-75
2022/04/22 00:24:21;;;;;;;2.88;0.70;;;11.80;99.90;;;;;;5017885;28;20029;-75
2022/04/22 00:26:47;;;;;;;2.97;0.82;;;11.80;99.90;;;;;;5034446;28;20080;-75
2022/04/22 00:29:12;;;;;;;1.55;0.88;;;11.70;99.90;;;;;;5036252;28;20430;-75
2022/04/22 00:31:38;;;;;;;3.03;0.75;;;11.70;99.90;;;;;;5035905;28;20017;-75
2022/04/22 00:34:04;;;;;;;1.50;0.90;;;11.70;99.90;;;;;;5036148;28;20423;-75
2022/04/22 00:36:30;;;;;;;3.85;1.80;;;11.70;99.90;;;;;;5035883;28;20140;-75
2022/04/22 00:38:56;;;;;;;2.65;0.98;;;11.60;99.90;;;;;;5017739;28;20021;-75
2022/04/22 00:41:22;;;;;;;5.00;1.35;;;11.60;99.90;;;;;;5035810;28;20030;-74
2022/04/22 00:43:50;;;;;;;2.92;0.82;;;11.60;99.90;;;;;;5035397;28;20057;-75
2022/04/22 00:46:16;;;;;;;2.38;1.13;;;11.60;99.90;;;;;;5035269;28;20072;-74
2022/04/22 00:48:42;;;;;;;1.80;1.10;;;11.50;99.90;;;;;;5035322;28;20049;-75
2022/04/22 00:51:09;;;;;;;3.08;1.40;;;11.50;99.90;;;;;;5035239;28;20395;-75
2022/04/22 00:53:36;;;;;;;2.53;1.27;;;11.50;99.90;;;;;;5035509;28;20478;-75
2022/04/22 00:56:06;;;;;;;4.45;1.48;;;11.50;99.90;;;;;;5035436;28;20074;-75
2022/04/22 00:58:35;;;;;;;3.20;1.13;;;11.40;99.90;;;;;;5017452;28;20104;-75
2022/04/22 01:01:02;;;;;;;3.50;1.00;;;11.40;99.90;;;;;;5035075;28;20044;-74
2022/04/22 01:03:28;;;;;;;2.35;1.38;;;11.30;99.90;;;;;;5035098;28;20030;-75
2022/04/22 01:11:25;;;;;;;4.57;1.33;;;11.30;99.90;;;;;;5035431;28;20029;-75
2022/04/22 01:13:51;;;;;;;4.43;1.20;;;11.20;99.90;;;;;;5034887;28;20029;-75
2022/04/22 01:16:17;;;;;;;6.10;2.45;;;11.20;99.90;;;;;;5034830;28;20022;-74
2022/04/22 01:18:42;;;;;;;2.33;1.27;;;11.20;99.90;;;;;;5017069;28;20033;-75
2022/04/22 01:21:08;;;;;;;5.80;1.55;;;11.10;99.90;;;;;;5034709;28;20060;-75
2022/04/22 01:23:36;;;;;;;3.70;1.42;;;11.10;99.90;;;;;;5034683;28;20498;-75
2022/04/22 01:26:02;;;;;;;3.42;1.10;;;11.00;99.90;;;;;;5034890;28;20018;-74
2022/04/22 01:28:28;;;;;;;6.57;1.20;;;11.00;99.90;;;;;;5034591;28;20028;-75
2022/04/22 01:31:00;;;;;;;7.47;2.03;;;11.00;99.90;;;;;;5034752;28;20118;-75
2022/04/22 01:33:28;;;;;;;2.55;1.23;;;11.00;99.90;;;;;;5016769;28;20024;-74
2022/04/22 01:35:54;;;;;;;4.88;1.50;;;11.00;99.90;;;;;;5034474;28;20076;-74
2022/04/22 01:38:19;;;;;;;2.40;1.10;;;11.00;99.90;;;;;;5034031;28;20033;-74
2022/04/22 01:40:45;;;;;;;3.80;0.93;;;11.00;99.90;;;;;;5034280;28;20029;-75
2022/04/22 01:43:10;;;;;;;4.07;1.33;;;11.00;99.90;;;;;;5034914;28;20021;-74
2022/04/22 01:45:36;;;;;;;5.32;1.58;;;11.00;99.90;;;;;;5016520;28;20117;-74
2022/04/22 01:48:02;;;;;;;8.85;2.22;;;10.90;99.90;;;;;;5034809;28;20105;-74
2022/04/22 01:50:27;;;;;;;5.68;1.92;;;10.90;99.90;;;;;;5034529;28;20391;-74
2022/04/22 01:52:53;;;;;;;4.55;1.67;;;10.90;99.90;;;;;;5035470;28;20354;-74
2022/04/22 01:55:19;;;;;;;2.60;1.27;;;10.90;99.90;;;;;;5034220;28;20484;-74
2022/04/22 01:57:45;;;;;;;2.63;1.00;;;10.80;99.90;;;;;;5034312;28;20029;-74
2022/04/22 02:00:11;;;;;;;4.57;1.40;;;10.80;99.90;;;;;;5034301;28;20021;-75
2022/04/22 02:02:36;;;;;;;5.22;1.50;;;10.70;99.90;;;;;;5033780;28;20079;-75
2022/04/22 02:05:04;;;;;;;8.55;1.58;;;10.60;99.90;;;;;;5033843;28;20029;-75
2022/04/22 02:07:29;;;;;;;3.75;1.25;;;10.60;99.90;;;;;;5033854;28;20394;-75
2022/04/22 02:09:55;;;;;;;4.25;1.23;;;10.60;99.90;;;;;;5034296;28;20022;-75
2022/04/22 02:12:20;;;;;;;4.07;1.40;;;10.50;99.90;;;;;;5016010;28;20013;-75
2022/04/22 02:14:47;;;;;;;3.47;1.65;;;10.40;99.90;;;;;;5033764;28;20030;-75
2022/04/22 02:17:12;;;;;;;5.70;1.75;;;10.40;99.90;;;;;;5015990;28;20029;-75
2022/04/22 02:19:39;;;;;;;3.13;1.40;;;10.40;99.90;;;;;;5034009;28;20030;-74
2022/04/22 02:22:05;;;;;;;3.28;1.10;;;10.40;99.90;;;;;;5016130;28;20037;-74
2022/04/22 02:24:30;;;;;;;5.15;1.55;;;10.30;99.90;;;;;;5033616;28;20121;-74
2022/04/22 02:29:40;;;;;;;2.95;1.20;;;10.20;99.90;;;;;;5033586;28;20079;-75
2022/04/22 02:32:06;;;;;;;5.05;1.70;;;10.20;99.90;;;;;;5033430;28;20474;-73
2022/04/22 02:34:32;;;;;;;7.20;1.40;;;10.20;99.90;;;;;;5015763;28;20092;-75
2022/04/22 02:36:57;;;;;;;4.72;1.10;;;10.10;99.90;;;;;;5033698;28;20120;-75
2022/04/22 02:39:23;;;;;;;5.10;2.13;;;10.10;99.90;;;;;;5033396;28;20033;-75
2022/04/22 02:47:17;;;;;;;5.50;1.80;;;10.00;99.90;;;;;;5033464;28;20040;-73
2022/04/22 02:49:44;;;;;;;2.67;1.35;;;10.00;99.90;;;;;;5014823;28;20546;-74
2022/04/22 02:52:10;;;;;;;2.00;0.90;;;10.00;99.90;;;;;;5015540;28;20486;-74
2022/04/22 02:54:36;;;;;;;4.75;1.38;;;10.00;99.90;;;;;;5033202;28;20016;-74
2022/04/22 02:57:02;;;;;;;5.57;1.15;;;10.00;99.90;;;;;;5015564;28;20029;-74
2022/04/22 02:59:29;;;;;;;4.78;1.17;;;10.00;99.90;;;;;;5015428;28;20057;-74
2022/04/22 03:01:55;;;;;;;5.40;1.58;;;10.00;99.90;;;;;;5033461;28;20115;-75
2022/04/22 03:04:21;;;;;;;3.40;0.93;;;10.00;99.90;;;;;;5033219;28;20021;-75
2022/04/22 03:06:47;;;;;;;4.57;1.50;;;10.00;99.90;;;;;;5015701;28;20029;-74
2022/04/22 03:09:12;;;;;;;4.18;2.08;;;10.00;99.90;;;;;;5033090;28;20021;-73
2022/04/22 03:11:38;;;;;;;4.57;1.23;;;10.00;99.90;;;;;;5033133;28;20017;-73
2022/04/22 03:14:05;;;;;;;6.07;2.05;;;10.00;99.90;;;;;;5033352;28;20056;-73
2022/04/22 03:16:31;;;;;;;4.15;1.30;;;10.00;99.90;;;;;;5033046;28;20036;-73
2022/04/22 03:18:56;;;;;;;6.68;1.45;;;10.00;99.90;;;;;;5033185;28;20030;-73
2022/04/22 03:21:25;;;;;;;3.13;1.20;;;10.00;99.90;;;;;;5033625;28;20030;-73
2022/04/22 03:23:51;;;;;;;3.40;1.67;;;9.90;99.90;;;;;;5015351;28;20068;-74
2022/04/22 03:26:17;;;;;;;5.25;1.77;;;10.00;99.90;;;;;;5015484;28;20061;-73
2022/04/22 03:28:42;;;;;;;2.72;1.40;;;9.90;99.90;;;;;;5033153;28;20388;-74
2022/04/22 03:31:08;;;;;;;6.22;2.08;;;9.90;99.90;;;;;;5032879;28;20455;-73
2022/04/22 03:33:34;;;;;;;4.88;1.50;;;9.90;99.90;;;;;;5033037;28;20021;-73
2022/04/22 03:35:59;;;;;;;9.07;1.90;;;9.90;99.90;;;;;;5015477;28;20017;-73
2022/04/22 03:38:25;;;;;;;4.72;2.15;;;9.90;99.90;;;;;;5032917;28;20056;-73
2022/04/22 03:40:52;;;;;;;4.63;1.95;;;9.90;99.90;;;;;;5015320;28;20022;-73
2022/04/22 03:43:19;;;;;;;4.22;1.85;;;9.80;99.90;;;;;;5032915;28;20163;-73
2022/04/22 03:45:45;;;;;;;5.68;2.50;;;9.80;99.90;;;;;;5032877;28;20045;-73
2022/04/22 03:48:12;;;;;;;6.30;2.38;;;9.70;99.90;;;;;;5032834;28;20025;-73
2022/04/22 03:50:38;;;;;;;6.95;2.75;;;9.70;99.90;;;;;;5032919;28;20024;-73
2022/04/22 03:53:05;;;;;;;3.75;1.60;;;9.70;99.90;;;;;;5033514;28;20030;-73
2022/04/22 03:55:31;;;;;;;11.13;3.13;;;9.70;99.90;;;;;;5033328;28;20030;-73
2022/04/22 03:58:12;;;;;;;4.60;2.40;;;9.70;99.90;;;;;;5033468;28;20030;-73
2022/04/22 04:00:46;;;;;;;3.83;1.95;;;9.70;99.90;;;;;;5034140;28;20104;-73
2022/04/22 04:03:17;;;;;;;6.82;2.60;;;9.70;99.90;;;;;;5037203;28;20117;-73
2022/04/22 04:05:52;;;;;;;8.52;3.33;;;9.70;99.90;;;;;;5036776;28;20029;-73
2022/04/22 04:08:20;;;;;;;6.78;2.95;;;9.60;99.90;;;;;;5018742;28;20072;-73
2022/04/22 04:16:16;;;;;;;8.98;2.47;;;9.60;99.90;;;;;;5037298;28;20029;-73
2022/04/22 04:18:42;;;;;;;3.95;2.47;;;9.50;99.90;;;;;;5036081;28;20040;-73
2022/04/22 04:23:56;;;;;;;4.78;2.33;;;9.50;99.90;;;;;;5036304;28;20052;-73
2022/04/22 04:26:24;;;;;;;5.25;2.97;;;9.40;99.90;;;;;;5018440;28;20478;-73
2022/04/22 04:28:51;;;;;;;4.72;2.42;;;9.40;99.90;;;;;;5036135;28;20513;-74
2022/04/22 04:31:17;;;;;;;7.07;2.30;;;9.30;99.90;;;;;;5036131;28;20024;-73
2022/04/22 04:33:43;;;;;;;7.13;3.05;;;9.30;99.90;;;;;;5036453;28;20017;-73
2022/04/22 04:36:10;;;;;;;5.38;2.42;;;9.30;99.90;;;;;;5036021;28;20026;-73
2022/04/22 04:38:40;;;;;;;7.20;3.03;;;9.30;99.90;;;;;;5036006;28;20025;-73
2022/04/22 04:41:08;;;;;;;4.13;2.55;;;9.30;99.90;;;;;;5018193;28;20025;-73
2022/04/22 04:43:34;;;;;;;6.20;2.93;;;9.30;99.90;;;;;;5036342;28;20026;-73
2022/04/22 04:45:59;;;;;;;7.57;2.97;;;9.20;99.90;;;;;;5035834;28;20064;-73
2022/04/22 04:48:26;;;;;;;4.90;2.47;;;9.20;99.90;;;;;;5017975;28;20049;-73
2022/04/22 04:50:52;;;;;;;5.72;2.83;;;9.20;99.90;;;;;;5017925;28;20022;-73
2022/04/22 04:53:20;;;;;;;7.93;2.45;;;9.20;99.90;;;;;;5018226;28;20064;-73
2022/04/22 04:55:45;;;;;;;4.97;2.40;;;9.30;99.90;;;;;;5017851;28;20499;-73
2022/04/22 04:58:11;;;;;;;6.25;2.70;;;9.30;99.90;;;;;;5017889;28;20021;-73
2022/04/22 05:00:37;;;;;;;4.97;2.78;;;9.30;99.90;;;;;;5035616;28;20041;-73
2022/04/22 05:03:03;;;;;;;6.00;3.03;;;9.30;99.90;;;;;;5017942;28;20021;-73
2022/04/22 05:05:29;;;;;;;4.32;2.38;;;9.30;99.90;;;;;;5035477;28;20125;-73
2022/04/22 05:07:59;;;;;;;6.05;2.95;;;9.30;99.90;;;;;;5035386;28;20025;-73
2022/04/22 05:10:27;;;;;;;6.50;2.70;;;9.40;99.90;;;;;;5035787;28;20042;-75
2022/04/22 05:12:53;;;;;;;9.02;3.97;;;9.30;99.90;;;;;;5035523;28;20017;-76
2022/04/22 05:15:22;;;;;;;4.93;2.45;;;9.40;99.90;;;;;;5017579;28;20048;-76
2022/04/22 05:17:48;;;;;;;6.47;2.85;;;9.40;99.90;;;;;;5017374;28;20437;-77
2022/04/22 05:20:16;;;;;;;7.82;2.63;;;9.40;99.90;;;;;;5035136;28;20030;-77
2022/04/22 05:22:43;;;;;;;5.27;2.63;;;9.50;99.90;;;;;;5035079;28;20030;-77
2022/04/22 05:25:10;;;;;;;5.28;2.63;;;9.50;99.90;;;;;;5017179;28;20037;-77
2022/04/22 05:27:36;;;;;;;6.45;2.17;;;9.60;99.90;;;;;;5034888;28;20021;-77
2022/04/22 05:32:47;;;;;;;6.28;3.15;;;9.90;99.90;;;;;;5035144;28;20458;-77
2022/04/22 05:35:20;;;;;;;8.85;3.15;;;10.10;99.90;;;;;;5034909;28;20037;-77
2022/04/22 05:37:54;;;;;;;9.07;2.95;;;10.30;99.90;;;;;;5034712;28;20025;-77
2022/04/22 05:40:25;;;;;;;5.72;2.80;;;10.70;99.90;;;;;;5016888;28;20025;-78
2022/04/22 05:42:52;;;;;;;10.27;3.42;;;10.80;99.90;;;;;;5016720;28;20120;-78
2022/04/22 05:45:18;;;;;;;11.02;3.90;;;10.80;99.90;;;;;;5034518;28;20033;-78
2022/04/22 05:47:45;;;;;;;8.40;3.80;;;10.90;99.90;;;;;;5034909;28;20096;-78
2022/04/22 05:50:13;;;;;;;11.02;4.28;;;10.80;99.90;;;;;;5017137;28;20029;-78
2022/04/22 05:52:39;;;;;;;8.83;4.03;;;10.70;99.90;;;;;;5034678;28;20463;-78
2022/04/22 05:55:08;;;;;;;8.43;3.90;;;10.70;99.90;;;;;;5016905;28;20025;-78
2022/04/22 05:57:34;;;;;;;8.50;3.85;;;10.70;99.90;;;;;;5017130;28;20017;-79
2022/04/22 06:00:03;;;;;;;9.05;3.72;;;10.70;99.90;;;;;;5017792;28;20033;-79
2022/04/22 06:02:29;;;;;;;6.53;1.92;;;10.90;99.90;;;;;;5018529;28;20044;-79
2022/04/22 06:04:55;;;;;;;6.28;2.03;;;11.50;99.90;;;;;;5036573;28;20030;-78
2022/04/22 06:07:21;;;;;;;9.35;4.18;;;12.20;99.90;;;;;;5036539;28;20049;-78
2022/04/22 06:12:30;;;;;;;9.95;4.50;;;12.30;99.90;;;;;;5036666;28;20455;-78
2022/04/22 06:14:59;;;;;;;9.18;3.85;;;12.10;99.90;;;;;;5017933;28;20049;-78
2022/04/22 06:17:29;;;;;;;15.82;5.55;;;12.00;99.90;;;;;;5034804;28;20032;-78
2022/04/22 06:19:56;;;;;;;7.43;3.60;;;11.80;99.90;;;;;;5016867;28;20036;-78
2022/04/22 06:22:22;;;;;;;8.48;4.30;;;11.60;99.90;;;;;;5034680;28;20534;-78
2022/04/22 06:24:48;;;;;;;12.07;4.90;;;11.50;99.90;;;;;;5034307;28;20079;-78
2022/04/22 06:27:13;;;;;;;8.82;4.65;;;11.40;99.90;;;;;;5034191;28;20360;-78
2022/04/22 06:29:39;;;;;;;11.02;5.25;;;11.30;99.90;;;;;;5034978;28;20018;-78
2022/04/22 06:32:05;;;;;;;10.45;4.85;;;11.30;99.90;;;;;;5034826;28;20097;-78
2022/04/22 06:34:31;;;;;;;19.00;5.40;;;11.30;99.90;;;;;;5034286;28;20022;-78
2022/04/22 06:36:57;;;;;;;11.77;5.10;;;11.30;99.90;;;;;;5034438;28;20087;-78
2022/04/22 06:39:23;;;;;;;12.30;4.80;;;11.30;99.90;;;;;;5016820;28;20529;-78
2022/04/22 06:47:17;;;;;;;11.80;5.45;;;11.60;99.90;;;;;;5034135;28;20116;-77
2022/04/22 06:49:43;;;;;;;12.75;5.30;;;11.60;99.90;;;;;;5016190;28;20021;-77
2022/04/22 06:52:09;;;;;;;13.63;5.40;;;11.60;99.90;;;;;;5033735;28;20072;-77
2022/04/22 06:54:36;;;;;;;16.13;5.40;;;11.70;99.90;;;;;;5015720;28;20017;-77
2022/04/22 06:57:03;;;;;;;14.60;5.38;;;11.70;99.90;;;;;;5034006;28;20112;-77
2022/04/22 06:59:31;;;;;;;18.55;5.72;;;11.70;99.90;;;;;;5015605;28;20021;-77
2022/04/22 07:01:57;;;;;;;14.57;6.03;;;11.70;99.90;;;;;;5034328;28;20022;-78
2022/04/22 07:04:24;;;;;;;17.90;5.35;;;11.70;99.90;;;;;;5016898;28;20057;-78
2022/04/22 07:06:50;;;;;;;15.52;5.38;;;11.90;99.90;;;;;;5016430;28;20049;-78
2022/04/22 07:09:16;;;;;;;12.65;4.72;;;12.00;99.90;;;;;;5034283;28;20108;-78
2022/04/22 07:11:43;;;;;;;10.45;4.63;;;12.00;99.90;;;;;;5033890;28;20057;-78
2022/04/22 07:14:09;;;;;;;9.60;4.90;;;12.10;99.90;;;;;;5034201;28;20101;-78
2022/04/22 07:16:39;;;;;;;11.18;5.35;;;12.30;99.90;;;;;;5034076;28;20079;-78
2022/04/22 07:19:05;;;;;;;12.30;4.43;;;13.80;99.90;;;;;;5016185;28;20022;-78
2022/04/22 07:21:30;;;;;;;12.60;5.25;;;12.60;99.90;;;;;;5033798;28;20033;-78
2022/04/22 07:23:58;;;;;;;9.27;4.55;;;12.60;99.90;;;;;;5024506;23;20034;-76
2022/04/22 07:26:25;;;;;;;9.57;5.22;;;12.70;99.90;;;;;;5015579;28;20402;-76
2022/04/22 07:28:52;;;;;;;13.50;4.70;;;12.70;99.90;;;;;;5015438;28;20017;-76
2022/04/22 07:31:18;;;;;;;11.07;4.60;;;12.70;99.90;;;;;;5033526;28;20071;-75
2022/04/22 07:33:44;;;;;;;13.10;4.53;;;12.80;99.90;;;;;;5015369;28;20554;-75
2022/04/22 07:36:10;;;;;;;9.13;4.28;;;12.80;99.90;;;;;;5017347;28;20116;-75
2022/04/22 07:38:35;;;;;;;9.35;4.30;;;13.00;99.90;;;;;;5036742;28;20112;-75
2022/04/22 07:41:02;;;;;;;9.95;4.00;;;13.10;99.90;;;;;;5036562;28;20026;-75
2022/04/22 07:48:57;;;;;;;12.88;3.90;;;13.50;99.90;;;;;;5037530;28;20084;-75
2022/04/22 07:51:26;;;;;;;10.80;3.60;;;13.60;99.90;;;;;;5018791;28;20112;-75
2022/04/22 07:53:55;;;;;;;9.55;3.70;;;13.70;99.90;;;;;;5018723;28;20028;-73
2022/04/22 07:56:21;;;;;;;;;;;13.80;99.90;;;;;;5018978;28;20060;-74
2022/04/22 07:58:46;;;;;;;6.78;3.42;;;13.90;99.90;;;;;;5036319;28;19905;-74
2022/04/22 08:01:12;;;;;;;11.27;4.28;;;13.90;99.90;;;;;;5018482;28;20029;-74
2022/04/22 08:03:40;;;;;;;8.68;3.33;;;14.00;99.90;;;;;;5018447;28;20028;-73
2022/04/22 08:06:10;;;;;;;6.30;2.97;;;14.00;99.90;;;;;;5036253;28;20021;-73
2022/04/22 08:08:36;;;;;;;10.82;3.78;;;14.20;99.90;;;;;;5036242;28;20021;-74
2022/04/22 08:11:01;;;;;;;7.10;3.80;;;14.20;99.90;;;;;;5036230;28;20133;-73
2022/04/22 08:13:27;;;;;;;7.05;3.53;;;14.30;99.90;;;;;;5036183;28;20032;-74
2022/04/22 08:15:53;;;;;;;5.22;2.85;;;14.40;99.90;;;;;;5036438;28;20021;-73
2022/04/22 08:18:18;;;;;;;7.78;3.10;;;14.60;99.90;;;;;;5036076;28;20556;-73
2022/04/22 08:20:44;;;;;;;7.72;3.50;;;14.60;99.90;;;;;;5018179;28;20025;-73
2022/04/22 08:23:11;;;;;;;10.95;3.00;;;14.70;99.90;;;;;;5036080;28;20430;-73
2022/04/22 08:25:37;;;;;;;6.70;3.28;;;14.80;99.90;;;;;;5036041;28;20433;-73
2022/04/22 08:28:03;;;;;;;6.72;3.25;;;14.90;99.90;;;;;;5035795;28;20017;-73
2022/04/22 08:30:29;;;;;;;6.63;3.30;;;14.90;99.90;;;;;;5035736;28;20021;-73
2022/04/22 08:32:55;;;;;;;5.35;2.97;;;14.90;99.90;;;;;;5035591;28;20027;-73
2022/04/22 08:35:21;;;;;;;7.60;2.70;;;15.00;99.90;;;;;;5035672;28;20428;-74
2022/04/22 08:37:46;;;;;;;7.75;3.30;;;15.10;99.90;;;;;;5035594;28;20067;-73
2022/04/22 08:40:13;;;;;;;6.45;2.50;;;15.30;99.60;;;;;;5035589;28;20112;-73
2022/04/22 08:42:41;;;;;;;5.40;2.90;;;15.40;99.00;;;;;;5035410;28;20164;-74
2022/04/22 08:45:08;;;;;;;8.68;2.90;;;15.50;97.20;;;;;;5017638;28;20390;-73
2022/04/22 08:50:19;;;;;;;7.18;2.80;;;15.80;98.90;;;;;;5036207;28;20032;-73
2022/04/22 08:52:56;;;;;;;6.90;2.83;;;16.10;94.50;;;;;;5035214;28;20018;-73
2022/04/22 08:55:26;;;;;;;6.55;1.95;;;16.30;93.40;;;;;;5035191;28;20040;-73
2022/04/22 08:57:54;;;;;;;7.13;2.13;;;16.40;91.30;;;;;;5017486;28;20056;-73
2022/04/22 09:00:23;;;;;;;6.15;1.65;;;16.50;90.20;;;;;;5035577;28;20022;-73
2022/04/22 09:02:50;;;;;;;3.65;1.90;;;16.50;88.60;;;;;;5034957;28;20033;-73
2022/04/22 09:05:16;;;;;;;5.00;2.30;;;16.50;88.20;;;;;;5017177;28;20022;-73
2022/04/22 09:07:42;;;;;;;5.57;2.38;;;16.60;89.20;;;;;;5035350;28;20026;-73
2022/04/22 09:10:08;;;;;;;3.17;1.55;;;16.60;86.80;;;;;;5034882;28;20013;-73
2022/04/22 09:12:35;;;;;;;4.82;2.13;;;16.60;88.90;;;;;;5034767;28;20064;-73
2022/04/22 09:15:01;;;;;;;7.65;2.33;;;16.70;88.30;;;;;;5034902;28;20025;-74
2022/04/22 09:17:36;;;;;;;4.90;2.17;;;16.80;85.90;;;;;;5017145;28;20116;-73
2022/04/22 09:20:03;;;;;;;6.95;2.28;;;16.90;85.40;;;;;;5035122;28;20026;-73
2022/04/22 09:22:36;;;;;;;4.70;2.15;;;16.80;83.20;;;;;;5034699;28;20035;-73
2022/04/22 09:25:05;;;;;;;4.03;1.70;;;16.80;82.40;;;;;;5016827;28;20072;-73
2022/04/22 09:27:30;;;;;;;;;;;16.80;85.00;;;;;;5035092;28;20109;-74
2022/04/22 09:29:56;;;;;;;4.75;1.80;;;16.80;84.60;;;;;;5035116;28;19999;-73
2022/04/22 09:32:27;;;;;;;6.30;2.33;;;16.80;83.60;;;;;;5016716;28;20014;-73
2022/04/22 09:34:56;;;;;;;4.75;1.90;;;15.70;85.60;;;;;;5034761;28;20057;-73
2022/04/22 09:42:58;;;;;;;12.25;2.53;;;16.70;83.90;;;;;;5034568;28;20394;-73
2022/04/22 09:45:39;;;;;;;5.60;2.03;;;16.70;86.50;;;;;;5016580;28;20026;-73
2022/04/22 09:48:14;;;;;;;8.10;1.55;;;16.80;85.20;;;;;;5034336;28;20025;-74
2022/04/22 09:50:40;;;;;;;5.43;2.38;;;17.00;82.80;;;;;;5034144;28;20474;-74
2022/04/22 09:53:06;;;;;;;10.00;1.95;;;17.00;81.20;;;;;;5016562;28;20389;-76
2022/04/22 09:55:37;;;;;;;3.00;1.58;;;17.00;82.40;;;;;;5016416;28;20412;-75
2022/04/22 09:58:02;;;;;;;3.67;1.73;;;17.10;81.10;;;;;;5016154;28;20475;-76
2022/04/22 10:00:30;;;;;;;2.70;1.35;;;17.00;82.00;;;;;;5016406;28;20025;-75
2022/04/22 10:02:56;;;;;;;3.35;1.60;;;17.00;81.40;;;;;;5034262;28;20100;-73
2022/04/22 10:05:25;;;;;;;4.78;1.60;;;17.10;80.00;;;;;;5033943;28;20104;-73
2022/04/22 10:07:52;;;;;;;2.30;1.35;;;17.10;79.40;;;;;;5033926;28;20079;-73
2022/04/22 10:10:23;;;;;;;5.03;1.73;;;17.00;78.60;;;;;;5033909;28;20013;-73
2022/04/22 10:12:49;;;;;;;3.92;1.48;;;16.90;80.10;;;;;;5033744;28;20048;-72
2022/04/22 10:15:19;;;;;;;4.55;0.95;;;17.10;78.90;;;;;;5033819;28;20091;-72
2022/04/22 10:17:46;;;;;;;6.15;1.50;;;17.20;76.80;;;;;;5034031;28;20025;-72
2022/04/22 10:20:12;;;;;;;5.93;0.88;;;17.30;75.60;;;;;;5016611;28;20116;-72
2022/04/22 10:22:38;;;;;;;1.80;0.80;;;17.40;74.70;;;;;;5033623;28;20105;-73
2022/04/22 10:25:07;;;;;;;3.75;0.90;;;17.50;74.60;;;;;;5033433;28;20439;-72
2022/04/22 10:27:34;;;;;;;5.55;1.38;;;17.70;72.50;;;;;;5033588;28;20017;-73
2022/04/22 10:30:01;;;;;;;6.22;1.48;;;17.70;72.10;;;;;;5015795;28;20065;-72
2022/04/22 10:32:28;;;;;;;2.53;1.17;;;17.80;72.20;;;;;;5033467;28;20493;-73
2022/04/22 10:34:59;;;;;;;4.07;1.20;;;18.00;72.10;;;;;;5033458;28;20022;-73
2022/04/22 10:37:27;;;;;;;7.05;1.20;;;18.10;72.00;;;;;;5033713;28;20021;-73
2022/04/22 10:39:54;;;;;;;1.73;1.30;;;18.30;70.70;;;;;;5015736;28;20021;-72
2022/04/22 10:42:35;;;;;;;3.92;1.15;;;18.30;69.20;;;;;;5033322;28;20021;-72
2022/04/22 10:47:51;;;;;;;2.83;1.15;;;18.60;71.00;;;;;;5033933;28;20036;-73
2022/04/22 10:50:39;;;;;;;4.05;1.10;;;19.10;69.80;;;;;;5033243;28;20026;-73
2022/04/22 10:53:07;;;;;;;2.30;1.35;;;19.40;67.10;;;;;;5033871;28;20067;-73
2022/04/22 10:55:39;;;;;;;2.08;1.25;;;19.50;65.10;;;;;;5033197;28;20368;-73
2022/04/22 10:58:14;;;;;;;4.93;1.40;;;19.70;65.80;;;;;;5015525;28;20059;-73
2022/04/22 11:00:46;;;;;;;3.80;1.70;;;20.10;65.40;;;;;;5033062;28;20029;-73
2022/04/22 11:03:19;;;;;;;3.55;0.93;;;20.20;66.00;;;;;;5033458;28;20057;-73
2022/04/22 11:05:48;;;;;;;2.47;0.70;;;20.40;64.10;;;;;;5033387;28;20033;-76
2022/04/22 11:08:37;;;;;;;1.80;0.52;;;20.30;59.00;;;;;;5033160;28;20132;-76
2022/04/22 11:11:21;;;;;;;1.77;0.55;;;20.20;57.80;;;;;;5017364;28;20018;-76
2022/04/22 11:13:50;;;;;;;1.77;0.70;;;20.00;56.40;;;;;;5037268;28;20104;-76
2022/04/22 11:16:30;;;;;;;2.90;0.57;;;19.80;56.50;;;;;;5037128;28;20026;-76
2022/04/22 11:19:10;;;;;;;3.15;0.60;;;19.50;57.30;;;;;;5037139;28;20029;-75
2022/04/22 11:21:39;;;;;;;3.17;0.70;;;19.40;58.20;;;;;;5036911;28;20402;-75
2022/04/22 11:24:15;;;;;;;3.03;0.50;;;19.60;57.50;;;;;;5037243;28;20501;-76
2022/04/22 11:26:45;;;;;;;1.10;0.65;;;20.10;57.60;;;;;;5019130;28;20025;-76
2022/04/22 11:29:13;;;;;;;4.18;1.23;;;20.20;60.70;;;;;;5036816;28;20422;-76
2022/04/22 11:31:39;;;;;;;2.83;1.08;;;20.60;59.40;;;;;;5036942;28;20427;-76
2022/04/22 11:34:11;;;;;;;1.75;0.82;;;20.70;58.70;;;;;;5037047;28;20017;-75
2022/04/22 11:36:44;;;;;;;4.50;0.52;;;20.80;56.80;;;;;;5036700;28;20031;-76
2022/04/22 11:39:19;;;;;;;2.40;0.70;;;21.10;55.80;;;;;;5037295;28;20067;-75
2022/04/22 11:41:58;;;;;;;2.05;0.50;;;21.20;54.10;;;;;;5036619;28;20082;-76
2022/04/22 11:44:24;;;;;;;1.90;0.57;;;21.20;53.30;;;;;;5018824;28;20076;-76
2022/04/22 11:46:51;;;;;;;3.10;0.57;;;21.10;53.20;;;;;;5018739;28;20022;-76
2022/04/22 11:49:17;;;;;;;0.98;0.30;;;21.20;55.90;;;;;;5018652;28;20140;-76
2022/04/22 11:51:43;;;;;;;0.90;0.20;;;21.30;54.50;;;;;;5018621;28;20120;-76
2022/04/22 11:54:08;;;;;;;0.63;0.30;;;21.60;48.50;;;;;;5036736;28;20026;-76
2022/04/22 11:56:35;;;;;;;0.32;0.20;;;21.60;47.20;;;;;;5036783;28;20033;-76
2022/04/22 11:59:01;;;;;;;2.53;0.20;;;21.80;48.20;;;;;;5018591;28;20029;-76
2022/04/22 12:08:00;;;;;;;2.30;0.10;;;21.90;44.70;;;;;;5036684;28;20060;-76
2022/04/22 12:10:00;;;;;;;0.82;0.10;;;21.80;44.60;;;;;;5035889;28;20032;-76
2022/04/22 12:12:31;;;;;;;0.55;0.15;;;21.80;44.50;;;;;;5035967;28;20032;-76
2022/04/22 12:15:06;;;;;;;1.15;0.15;;;21.80;45.10;;;;;;5036692;28;20026;-76
2022/04/22 12:17:34;;;;;;;4.43;0.25;;;22.10;45.10;;;;;;5036000;28;20036;-76
2022/04/22 12:20:00;;;;;;;;;;;22.30;44.90;;;;;;5036337;28;20018;-76
2022/04/22 12:22:26;;;;;;;1.75;0.20;;;22.40;43.70;;;;;;5035928;28;19955;-76
2022/04/22 12:25:13;;;;;;;1.67;0.40;;;22.70;43.90;;;;;;5035623;28;20490;-76
2022/04/22 12:27:41;;;;;;;0.70;0.20;;;22.80;43.50;;;;;;5036087;28;20033;-76
2022/04/22 12:30:12;;;;;;;0.90;0.10;;;22.70;42.60;;;;;;5035716;28;20032;-76
2022/04/22 12:32:39;;;;;;;2.10;0.10;;;22.40;42.40;;;;;;5035667;28;20113;-76
2022/04/22 12:35:11;;;;;;;1.98;0.40;;;21.90;42.70;;;;;;5017902;28;20454;-76
2022/04/22 12:37:50;;;;;;;1.05;0.50;;;21.60;43.80;;;;;;5035600;28;20520;-76
2022/04/22 12:40:19;;;;;;;0.77;0.20;;;21.90;44.00;;;;;;5017848;28;20500;-76
2022/04/22 12:42:54;;;;;;;1.90;0.20;;;22.30;43.40;;;;;;5035513;28;20025;-76
2022/04/22 12:53:50;;;;;;;1.02;0.13;;;22.10;43.80;;;;;;5035915;28;20120;-76
2022/04/22 12:56:16;;;;;;;1.75;0.20;;;22.10;44.40;;;;;;5035330;28;20045;-76
2022/04/22 12:58:53;;;;;;;2.58;0.13;;;22.30;43.70;;;;;;5035811;28;20031;-76
2022/04/22 13:01:20;;;;;;;2.10;0.30;;;22.60;43.60;;;;;;5035138;28;20517;-75
2022/04/22 13:03:47;;;;;;;0.65;0.10;;;22.90;42.40;;;;;;5035148;28;20026;-76
2022/04/22 13:06:33;;;;;;;1.98;0.28;;;23.50;42.70;;;;;;5035028;28;20364;-75
2022/04/22 13:08:59;;;;;;;5.80;0.32;;;23.60;41.90;;;;;;5035588;28;20029;-76
2022/04/22 13:11:24;;;;;;;0.77;0.30;;;23.30;41.30;;;;;;5035167;28;20022;-76
2022/04/22 13:13:50;;;;;;;2.17;0.10;;;22.70;41.40;;;;;;5034983;28;20018;-76
2022/04/22 13:16:16;;;;;;;2.30;0.30;;;22.20;42.80;;;;;;5035278;28;20025;-76
2022/04/22 13:18:41;;;;;;;1.25;0.20;;;22.00;43.10;;;;;;5035118;28;20017;-76
2022/04/22 13:21:07;;;;;;;3.83;0.38;;;22.30;43.00;;;;;;5034938;28;20033;-76
2022/04/22 13:23:36;;;;;;;2.90;0.30;;;22.70;42.40;;;;;;5016788;28;20041;-76
2022/04/22 13:26:02;;;;;;;1.65;0.17;;;23.10;42.00;;;;;;5034637;28;20542;-76
2022/04/22 13:28:28;;;;;;;4.18;0.20;;;23.30;41.70;;;;;;5034682;28;20018;-76
2022/04/22 13:30:53;;;;;;;4.43;0.90;;;23.40;41.10;;;;;;5034576;28;20144;-76
2022/04/22 13:33:19;;;;;;;0.40;0.10;;;23.80;41.00;;;;;;5033979;28;20025;-76
2022/04/22 13:35:45;;;;;;;1.38;0.05;;;24.20;41.10;;;;;;5016800;28;20022;-76
2022/04/22 13:38:10;;;;;;;0.60;0.20;;;24.50;41.00;;;;;;5034429;28;20380;-76
2022/04/22 13:40:36;;;;;;;1.20;0.10;;;24.30;39.00;;;;;;5034739;28;20025;-76
2022/04/22 13:43:02;;;;;;;1.95;0.10;;;24.20;41.20;;;;;;5034540;28;20032;-76
2022/04/22 13:53:40;;;;;;;1.60;0.38;;;24.60;39.30;;;;;;5034471;28;20084;-76
2022/04/22 13:56:05;;;;;;;1.10;0.30;;;23.90;39.50;;;;;;5034139;28;20478;-75
2022/04/22 13:58:33;;;;;;;0.40;0.00;;;23.60;41.50;;;;;;5015097;28;20025;-76
2022/04/22 14:01:02;;;;;;;0.47;0.10;;;23.40;40.50;;;;;;5034710;28;20383;-76